Terminal Aerodrome Forecast
Issued by NWS

Home | Current Version | Previous Version | Text Only | Print | Product List | Glossary On
Versions: 1 2 3 4 5 6 7 8 9 10 11 12
000
FTUS45 KPSR 120520
TAFIWA
TAF
KIWA 120520Z 1206/1306 10007KT P6SM SCT200
     FM121800 08010G18KT P6SM SCT200
     FM122300 08006KT P6SM BKN200
      AMD LTD TO CLD VIS AND WIND TIL 121300=

USA.gov is the U.S. government's official web portal to all federal, state and local government web resources and services.